sensor_id;sensor_type;location;lat;lon;timestamp;P1;durP1;ratioP1;P2;durP2;ratioP2
6695;SDS011;3385;48.928;10.330;2023-09-12T00:02:21;0.00;;;0.00;;
6695;SDS011;3385;48.928;10.330;2023-09-12T00:04:47;0.00;;;0.00;;
6695;SDS011;3385;48.928;10.330;2023-09-12T00:07:15;0.00;;;0.00;;
6695;SDS011;3385;48.928;10.330;2023-09-12T00:09:42;0.00;;;0.00;;
6695;SDS011;3385;48.928;10.330;2023-09-12T00:12:08;0.00;;;0.00;;
6695;SDS011;3385;48.928;10.330;2023-09-12T00:14:34;0.00;;;0.00;;
6695;SDS011;3385;48.928;10.330;2023-09-12T00:17:00;0.00;;;0.00;;
6695;SDS011;3385;48.928;10.330;2023-09-12T00:19:26;0.00;;;0.00;;
6695;SDS011;3385;48.928;10.330;2023-09-12T00:21:52;0.00;;;0.00;;
6695;SDS011;3385;48.928;10.330;2023-09-12T00:24:19;0.00;;;0.00;;
6695;SDS011;3385;48.928;10.330;2023-09-12T00:26:44;0.00;;;0.00;;
6695;SDS011;3385;48.928;10.330;2023-09-12T00:29:10;0.00;;;0.00;;
6695;SDS011;3385;48.928;10.330;2023-09-12T00:31:36;0.00;;;0.00;;
6695;SDS011;3385;48.928;10.330;2023-09-12T00:34:02;0.00;;;0.00;;
6695;SDS011;3385;48.928;10.330;2023-09-12T00:36:29;0.00;;;0.00;;
6695;SDS011;3385;48.928;10.330;2023-09-12T00:38:55;0.00;;;0.00;;
6695;SDS011;3385;48.928;10.330;2023-09-12T00:41:21;0.00;;;0.00;;
6695;SDS011;3385;48.928;10.330;2023-09-12T00:43:47;0.00;;;0.00;;
6695;SDS011;3385;48.928;10.330;2023-09-12T00:46:14;0.00;;;0.00;;
6695;SDS011;3385;48.928;10.330;2023-09-12T00:48:44;0.00;;;0.00;;
6695;SDS011;3385;48.928;10.330;2023-09-12T00:51:11;0.00;;;0.00;;
6695;SDS011;3385;48.928;10.330;2023-09-12T00:53:39;0.00;;;0.00;;
6695;SDS011;3385;48.928;10.330;2023-09-12T00:56:05;0.00;;;0.00;;
6695;SDS011;3385;48.928;10.330;2023-09-12T00:58:32;0.00;;;0.00;;
6695;SDS011;3385;48.928;10.330;2023-09-12T01:00:58;0.00;;;0.00;;
6695;SDS011;3385;48.928;10.330;2023-09-12T01:03:24;0.00;;;0.00;;
6695;SDS011;3385;48.928;10.330;2023-09-12T01:05:52;0.00;;;0.00;;
6695;SDS011;3385;48.928;10.330;2023-09-12T01:08:19;0.00;;;0.00;;
6695;SDS011;3385;48.928;10.330;2023-09-12T01:10:46;0.00;;;0.00;;
6695;SDS011;3385;48.928;10.330;2023-09-12T01:13:14;0.00;;;0.00;;
6695;SDS011;3385;48.928;10.330;2023-09-12T01:15:40;0.00;;;0.00;;
6695;SDS011;3385;48.928;10.330;2023-09-12T01:18:18;0.00;;;0.00;;
6695;SDS011;3385;48.928;10.330;2023-09-12T01:20:52;0.00;;;0.00;;
6695;SDS011;3385;48.928;10.330;2023-09-12T01:23:35;0.00;;;0.00;;
6695;SDS011;3385;48.928;10.330;2023-09-12T01:28:41;0.00;;;0.00;;
6695;SDS011;3385;48.928;10.330;2023-09-12T01:31:09;0.00;;;0.00;;
6695;SDS011;3385;48.928;10.330;2023-09-12T01:33:35;0.00;;;0.00;;
6695;SDS011;3385;48.928;10.330;2023-09-12T01:36:04;0.00;;;0.00;;
6695;SDS011;3385;48.928;10.330;2023-09-12T01:38:30;0.00;;;0.00;;
6695;SDS011;3385;48.928;10.330;2023-09-12T01:40:56;0.00;;;0.00;;
6695;SDS011;3385;48.928;10.330;2023-09-12T01:43:23;0.00;;;0.00;;
6695;SDS011;3385;48.928;10.330;2023-09-12T01:45:52;0.00;;;0.00;;
6695;SDS011;3385;48.928;10.330;2023-09-12T01:48:19;0.00;;;0.00;;
6695;SDS011;3385;48.928;10.330;2023-09-12T01:50:46;0.00;;;0.00;;
6695;SDS011;3385;48.928;10.330;2023-09-12T01:53:13;0.00;;;0.00;;
6695;SDS011;3385;48.928;10.330;2023-09-12T01:55:39;0.00;;;0.00;;
6695;SDS011;3385;48.928;10.330;2023-09-12T01:58:06;0.00;;;0.00;;
6695;SDS011;3385;48.928;10.330;2023-09-12T02:00:33;0.00;;;0.00;;
6695;SDS011;3385;48.928;10.330;2023-09-12T02:03:01;0.00;;;0.00;;
6695;SDS011;3385;48.928;10.330;2023-09-12T02:05:27;0.00;;;0.00;;
6695;SDS011;3385;48.928;10.330;2023-09-12T02:07:53;0.00;;;0.00;;
6695;SDS011;3385;48.928;10.330;2023-09-12T02:10:19;0.00;;;0.00;;
6695;SDS011;3385;48.928;10.330;2023-09-12T02:12:45;0.00;;;0.00;;
6695;SDS011;3385;48.928;10.330;2023-09-12T02:15:11;0.00;;;0.00;;
6695;SDS011;3385;48.928;10.330;2023-09-12T02:17:37;0.00;;;0.00;;
6695;SDS011;3385;48.928;10.330;2023-09-12T02:20:04;0.00;;;0.00;;
6695;SDS011;3385;48.928;10.330;2023-09-12T02:22:32;0.00;;;0.00;;
6695;SDS011;3385;48.928;10.330;2023-09-12T02:24:58;0.00;;;0.00;;
6695;SDS011;3385;48.928;10.330;2023-09-12T02:27:24;0.00;;;0.00;;
6695;SDS011;3385;48.928;10.330;2023-09-12T02:29:50;0.00;;;0.00;;
6695;SDS011;3385;48.928;10.330;2023-09-12T02:32:16;0.00;;;0.00;;
6695;SDS011;3385;48.928;10.330;2023-09-12T02:34:42;0.00;;;0.00;;
6695;SDS011;3385;48.928;10.330;2023-09-12T02:37:08;0.00;;;0.00;;
6695;SDS011;3385;48.928;10.330;2023-09-12T02:39:34;0.00;;;0.00;;
6695;SDS011;3385;48.928;10.330;2023-09-12T02:42:00;0.00;;;0.00;;
6695;SDS011;3385;48.928;10.330;2023-09-12T02:44:27;0.00;;;0.00;;
6695;SDS011;3385;48.928;10.330;2023-09-12T02:46:53;0.00;;;0.00;;
6695;SDS011;3385;48.928;10.330;2023-09-12T02:49:19;0.00;;;0.00;;
6695;SDS011;3385;48.928;10.330;2023-09-12T02:51:45;0.00;;;0.00;;
6695;SDS011;3385;48.928;10.330;2023-09-12T02:54:12;0.00;;;0.00;;
6695;SDS011;3385;48.928;10.330;2023-09-12T02:56:38;0.00;;;0.00;;
6695;SDS011;3385;48.928;10.330;2023-09-12T02:59:04;0.00;;;0.00;;
6695;SDS011;3385;48.928;10.330;2023-09-12T03:01:30;0.00;;;0.00;;
6695;SDS011;3385;48.928;10.330;2023-09-12T03:03:57;0.00;;;0.00;;
6695;SDS011;3385;48.928;10.330;2023-09-12T03:06:23;0.00;;;0.00;;
6695;SDS011;3385;48.928;10.330;2023-09-12T03:08:49;0.00;;;0.00;;
6695;SDS011;3385;48.928;10.330;2023-09-12T03:11:15;0.00;;;0.00;;
6695;SDS011;3385;48.928;10.330;2023-09-12T03:13:41;0.00;;;0.00;;
6695;SDS011;3385;48.928;10.330;2023-09-12T03:16:10;0.00;;;0.00;;
6695;SDS011;3385;48.928;10.330;2023-09-12T03:18:36;0.00;;;0.00;;
6695;SDS011;3385;48.928;10.330;2023-09-12T03:21:03;0.00;;;0.00;;
6695;SDS011;3385;48.928;10.330;2023-09-12T03:23:29;0.00;;;0.00;;
6695;SDS011;3385;48.928;10.330;2023-09-12T03:25:55;0.00;;;0.00;;
6695;SDS011;3385;48.928;10.330;2023-09-12T03:28:21;0.00;;;0.00;;
6695;SDS011;3385;48.928;10.330;2023-09-12T03:30:47;0.00;;;0.00;;
6695;SDS011;3385;48.928;10.330;2023-09-12T03:33:13;0.00;;;0.00;;
6695;SDS011;3385;48.928;10.330;2023-09-12T03:35:39;0.00;;;0.00;;
6695;SDS011;3385;48.928;10.330;2023-09-12T03:38:05;0.00;;;0.00;;
6695;SDS011;3385;48.928;10.330;2023-09-12T03:40:31;0.00;;;0.00;;
6695;SDS011;3385;48.928;10.330;2023-09-12T03:42:57;0.00;;;0.00;;
6695;SDS011;3385;48.928;10.330;2023-09-12T03:45:23;0.00;;;0.00;;
6695;SDS011;3385;48.928;10.330;2023-09-12T03:47:50;0.00;;;0.00;;
6695;SDS011;3385;48.928;10.330;2023-09-12T03:50:16;0.00;;;0.00;;
6695;SDS011;3385;48.928;10.330;2023-09-12T03:52:42;0.00;;;0.00;;
6695;SDS011;3385;48.928;10.330;2023-09-12T03:55:08;0.00;;;0.00;;
6695;SDS011;3385;48.928;10.330;2023-09-12T03:57:35;0.00;;;0.00;;
6695;SDS011;3385;48.928;10.330;2023-09-12T04:00:01;0.00;;;0.00;;
6695;SDS011;3385;48.928;10.330;2023-09-12T04:02:30;0.00;;;0.00;;
6695;SDS011;3385;48.928;10.330;2023-09-12T04:04:56;0.00;;;0.00;;
6695;SDS011;3385;48.928;10.330;2023-09-12T04:07:24;0.00;;;0.00;;
6695;SDS011;3385;48.928;10.330;2023-09-12T04:09:50;0.00;;;0.00;;
6695;SDS011;3385;48.928;10.330;2023-09-12T04:12:16;0.00;;;0.00;;
6695;SDS011;3385;48.928;10.330;2023-09-12T04:14:42;0.00;;;0.00;;
6695;SDS011;3385;48.928;10.330;2023-09-12T04:17:08;0.00;;;0.00;;
6695;SDS011;3385;48.928;10.330;2023-09-12T04:19:34;0.00;;;0.00;;
6695;SDS011;3385;48.928;10.330;2023-09-12T04:22:00;0.00;;;0.00;;
6695;SDS011;3385;48.928;10.330;2023-09-12T04:24:26;0.00;;;0.00;;
6695;SDS011;3385;48.928;10.330;2023-09-12T04:26:53;0.00;;;0.00;;
6695;SDS011;3385;48.928;10.330;2023-09-12T04:29:19;0.00;;;0.00;;
6695;SDS011;3385;48.928;10.330;2023-09-12T04:31:45;0.00;;;0.00;;
6695;SDS011;3385;48.928;10.330;2023-09-12T04:34:11;0.00;;;0.00;;
6695;SDS011;3385;48.928;10.330;2023-09-12T04:36:36;0.00;;;0.00;;
6695;SDS011;3385;48.928;10.330;2023-09-12T04:39:02;0.00;;;0.00;;
6695;SDS011;3385;48.928;10.330;2023-09-12T04:41:30;0.00;;;0.00;;
6695;SDS011;3385;48.928;10.330;2023-09-12T04:43:56;0.00;;;0.00;;
6695;SDS011;3385;48.928;10.330;2023-09-12T04:46:24;0.00;;;0.00;;
6695;SDS011;3385;48.928;10.330;2023-09-12T04:48:50;0.00;;;0.00;;
6695;SDS011;3385;48.928;10.330;2023-09-12T04:51:16;0.00;;;0.00;;
6695;SDS011;3385;48.928;10.330;2023-09-12T04:53:42;0.00;;;0.00;;
6695;SDS011;3385;48.928;10.330;2023-09-12T04:56:09;0.00;;;0.00;;
6695;SDS011;3385;48.928;10.330;2023-09-12T04:58:35;0.00;;;0.00;;
6695;SDS011;3385;48.928;10.330;2023-09-12T05:01:01;0.00;;;0.00;;
6695;SDS011;3385;48.928;10.330;2023-09-12T05:03:28;0.00;;;0.00;;
6695;SDS011;3385;48.928;10.330;2023-09-12T05:05:53;0.00;;;0.00;;
6695;SDS011;3385;48.928;10.330;2023-09-12T05:08:19;0.00;;;0.00;;
6695;SDS011;3385;48.928;10.330;2023-09-12T05:10:45;0.00;;;0.00;;
6695;SDS011;3385;48.928;10.330;2023-09-12T05:13:11;0.00;;;0.00;;
6695;SDS011;3385;48.928;10.330;2023-09-12T05:15:38;0.00;;;0.00;;
6695;SDS011;3385;48.928;10.330;2023-09-12T05:18:05;0.00;;;0.00;;
6695;SDS011;3385;48.928;10.330;2023-09-12T05:20:31;0.00;;;0.00;;
6695;SDS011;3385;48.928;10.330;2023-09-12T05:22:57;0.00;;;0.00;;
6695;SDS011;3385;48.928;10.330;2023-09-12T05:25:23;0.00;;;0.00;;
6695;SDS011;3385;48.928;10.330;2023-09-12T05:27:49;0.00;;;0.00;;
6695;SDS011;3385;48.928;10.330;2023-09-12T05:30:15;0.00;;;0.00;;
6695;SDS011;3385;48.928;10.330;2023-09-12T05:32:41;0.00;;;0.00;;
6695;SDS011;3385;48.928;10.330;2023-09-12T05:35:07;0.00;;;0.00;;
6695;SDS011;3385;48.928;10.330;2023-09-12T05:37:33;0.00;;;0.00;;
6695;SDS011;3385;48.928;10.330;2023-09-12T05:39:59;0.00;;;0.00;;
6695;SDS011;3385;48.928;10.330;2023-09-12T05:42:25;0.00;;;0.00;;
6695;SDS011;3385;48.928;10.330;2023-09-12T05:44:52;0.00;;;0.00;;
6695;SDS011;3385;48.928;10.330;2023-09-12T05:47:21;0.00;;;0.00;;
6695;SDS011;3385;48.928;10.330;2023-09-12T05:49:48;0.00;;;0.00;;
6695;SDS011;3385;48.928;10.330;2023-09-12T05:52:15;0.00;;;0.00;;
6695;SDS011;3385;48.928;10.330;2023-09-12T05:54:41;0.00;;;0.00;;
6695;SDS011;3385;48.928;10.330;2023-09-12T05:57:07;0.00;;;0.00;;
6695;SDS011;3385;48.928;10.330;2023-09-12T05:59:37;0.00;;;0.00;;
6695;SDS011;3385;48.928;10.330;2023-09-12T06:02:04;0.00;;;0.00;;
6695;SDS011;3385;48.928;10.330;2023-09-12T06:04:31;0.00;;;0.00;;
6695;SDS011;3385;48.928;10.330;2023-09-12T06:06:58;0.00;;;0.00;;
6695;SDS011;3385;48.928;10.330;2023-09-12T06:09:24;0.00;;;0.00;;
6695;SDS011;3385;48.928;10.330;2023-09-12T06:11:50;0.00;;;0.00;;
6695;SDS011;3385;48.928;10.330;2023-09-12T06:14:16;0.00;;;0.00;;
6695;SDS011;3385;48.928;10.330;2023-09-12T06:16:42;0.00;;;0.00;;
6695;SDS011;3385;48.928;10.330;2023-09-12T06:19:08;0.00;;;0.00;;
6695;SDS011;3385;48.928;10.330;2023-09-12T06:21:34;0.00;;;0.00;;
6695;SDS011;3385;48.928;10.330;2023-09-12T06:24:10;0.00;;;0.00;;
6695;SDS011;3385;48.928;10.330;2023-09-12T06:26:38;0.00;;;0.00;;
6695;SDS011;3385;48.928;10.330;2023-09-12T06:29:05;0.00;;;0.00;;
6695;SDS011;3385;48.928;10.330;2023-09-12T06:31:31;0.00;;;0.00;;
6695;SDS011;3385;48.928;10.330;2023-09-12T06:33:57;0.00;;;0.00;;
6695;SDS011;3385;48.928;10.330;2023-09-12T06:36:27;0.00;;;0.00;;
6695;SDS011;3385;48.928;10.330;2023-09-12T06:38:56;0.00;;;0.00;;
6695;SDS011;3385;48.928;10.330;2023-09-12T06:41:22;0.00;;;0.00;;
6695;SDS011;3385;48.928;10.330;2023-09-12T06:43:48;0.00;;;0.00;;
6695;SDS011;3385;48.928;10.330;2023-09-12T06:46:14;0.00;;;0.00;;
6695;SDS011;3385;48.928;10.330;2023-09-12T06:48:44;0.00;;;0.00;;
6695;SDS011;3385;48.928;10.330;2023-09-12T06:51:10;0.00;;;0.00;;
6695;SDS011;3385;48.928;10.330;2023-09-12T06:53:36;0.00;;;0.00;;
6695;SDS011;3385;48.928;10.330;2023-09-12T06:56:02;0.00;;;0.00;;
6695;SDS011;3385;48.928;10.330;2023-09-12T06:58:28;0.00;;;0.00;;
6695;SDS011;3385;48.928;10.330;2023-09-12T07:00:54;0.00;;;0.00;;
6695;SDS011;3385;48.928;10.330;2023-09-12T07:03:20;0.00;;;0.00;;
6695;SDS011;3385;48.928;10.330;2023-09-12T07:05:46;0.00;;;0.00;;
6695;SDS011;3385;48.928;10.330;2023-09-12T07:08:14;0.00;;;0.00;;
6695;SDS011;3385;48.928;10.330;2023-09-12T07:10:44;0.00;;;0.00;;
6695;SDS011;3385;48.928;10.330;2023-09-12T07:13:10;0.00;;;0.00;;
6695;SDS011;3385;48.928;10.330;2023-09-12T07:15:37;0.00;;;0.00;;
6695;SDS011;3385;48.928;10.330;2023-09-12T07:18:03;0.00;;;0.00;;
6695;SDS011;3385;48.928;10.330;2023-09-12T07:20:30;0.00;;;0.00;;
6695;SDS011;3385;48.928;10.330;2023-09-12T07:22:56;0.00;;;0.00;;
6695;SDS011;3385;48.928;10.330;2023-09-12T07:25:22;0.00;;;0.00;;
6695;SDS011;3385;48.928;10.330;2023-09-12T07:27:49;0.00;;;0.00;;
6695;SDS011;3385;48.928;10.330;2023-09-12T07:30:15;0.00;;;0.00;;
6695;SDS011;3385;48.928;10.330;2023-09-12T07:32:42;0.00;;;0.00;;
6695;SDS011;3385;48.928;10.330;2023-09-12T07:35:07;0.00;;;0.00;;
6695;SDS011;3385;48.928;10.330;2023-09-12T07:37:33;0.00;;;0.00;;
6695;SDS011;3385;48.928;10.330;2023-09-12T07:40:00;0.00;;;0.00;;
6695;SDS011;3385;48.928;10.330;2023-09-12T07:42:26;0.00;;;0.00;;
6695;SDS011;3385;48.928;10.330;2023-09-12T07:44:52;0.00;;;0.00;;
6695;SDS011;3385;48.928;10.330;2023-09-12T07:47:18;0.00;;;0.00;;
6695;SDS011;3385;48.928;10.330;2023-09-12T07:49:44;0.00;;;0.00;;
6695;SDS011;3385;48.928;10.330;2023-09-12T07:52:10;0.00;;;0.00;;
6695;SDS011;3385;48.928;10.330;2023-09-12T07:54:36;0.00;;;0.00;;
6695;SDS011;3385;48.928;10.330;2023-09-12T07:57:02;0.00;;;0.00;;
6695;SDS011;3385;48.928;10.330;2023-09-12T07:59:28;0.00;;;0.00;;
6695;SDS011;3385;48.928;10.330;2023-09-12T08:01:54;0.00;;;0.00;;
6695;SDS011;3385;48.928;10.330;2023-09-12T08:04:20;0.00;;;0.00;;
6695;SDS011;3385;48.928;10.330;2023-09-12T08:06:46;0.00;;;0.00;;
6695;SDS011;3385;48.928;10.330;2023-09-12T08:09:13;0.00;;;0.00;;
6695;SDS011;3385;48.928;10.330;2023-09-12T08:11:39;0.00;;;0.00;;
6695;SDS011;3385;48.928;10.330;2023-09-12T08:14:05;0.00;;;0.00;;
6695;SDS011;3385;48.928;10.330;2023-09-12T08:16:31;0.00;;;0.00;;
6695;SDS011;3385;48.928;10.330;2023-09-12T08:18:57;0.00;;;0.00;;
6695;SDS011;3385;48.928;10.330;2023-09-12T08:21:23;0.00;;;0.00;;
6695;SDS011;3385;48.928;10.330;2023-09-12T08:23:49;0.00;;;0.00;;
6695;SDS011;3385;48.928;10.330;2023-09-12T08:26:15;0.00;;;0.00;;
6695;SDS011;3385;48.928;10.330;2023-09-12T08:28:41;0.00;;;0.00;;
6695;SDS011;3385;48.928;10.330;2023-09-12T08:31:07;0.00;;;0.00;;
6695;SDS011;3385;48.928;10.330;2023-09-12T08:33:33;0.00;;;0.00;;
6695;SDS011;3385;48.928;10.330;2023-09-12T08:35:59;0.00;;;0.00;;
6695;SDS011;3385;48.928;10.330;2023-09-12T08:38:25;0.00;;;0.00;;
6695;SDS011;3385;48.928;10.330;2023-09-12T08:40:51;0.00;;;0.00;;
6695;SDS011;3385;48.928;10.330;2023-09-12T08:43:18;0.00;;;0.00;;
6695;SDS011;3385;48.928;10.330;2023-09-12T08:45:44;0.00;;;0.00;;
6695;SDS011;3385;48.928;10.330;2023-09-12T08:48:11;0.00;;;0.00;;
6695;SDS011;3385;48.928;10.330;2023-09-12T08:50:37;0.00;;;0.00;;
6695;SDS011;3385;48.928;10.330;2023-09-12T08:53:03;0.00;;;0.00;;
6695;SDS011;3385;48.928;10.330;2023-09-12T08:55:33;0.00;;;0.00;;
6695;SDS011;3385;48.928;10.330;2023-09-12T08:58:03;0.00;;;0.00;;
6695;SDS011;3385;48.928;10.330;2023-09-12T09:00:30;0.00;;;0.00;;
6695;SDS011;3385;48.928;10.330;2023-09-12T09:02:56;0.00;;;0.00;;
6695;SDS011;3385;48.928;10.330;2023-09-12T09:05:23;0.00;;;0.00;;
6695;SDS011;3385;48.928;10.330;2023-09-12T09:07:50;0.00;;;0.00;;
6695;SDS011;3385;48.928;10.330;2023-09-12T09:10:17;0.00;;;0.00;;
6695;SDS011;3385;48.928;10.330;2023-09-12T09:12:45;0.00;;;0.00;;
6695;SDS011;3385;48.928;10.330;2023-09-12T09:15:21;0.00;;;0.00;;
6695;SDS011;3385;48.928;10.330;2023-09-12T09:17:47;0.00;;;0.00;;
6695;SDS011;3385;48.928;10.330;2023-09-12T09:20:31;0.00;;;0.00;;
6695;SDS011;3385;48.928;10.330;2023-09-12T09:23:02;0.03;;;0.03;;
6695;SDS011;3385;48.928;10.330;2023-09-12T09:25:36;0.00;;;0.00;;
6695;SDS011;3385;48.928;10.330;2023-09-12T09:28:04;0.00;;;0.00;;
6695;SDS011;3385;48.928;10.330;2023-09-12T09:30:41;0.05;;;0.05;;
6695;SDS011;3385;48.928;10.330;2023-09-12T09:33:07;0.10;;;0.10;;
6695;SDS011;3385;48.928;10.330;2023-09-12T09:35:34;0.10;;;0.10;;
6695;SDS011;3385;48.928;10.330;2023-09-12T09:38:00;0.10;;;0.10;;
6695;SDS011;3385;48.928;10.330;2023-09-12T09:40:26;0.00;;;0.00;;
6695;SDS011;3385;48.928;10.330;2023-09-12T09:42:56;0.10;;;0.10;;
6695;SDS011;3385;48.928;10.330;2023-09-12T09:45:24;0.10;;;0.10;;
6695;SDS011;3385;48.928;10.330;2023-09-12T09:47:50;0.05;;;0.05;;
6695;SDS011;3385;48.928;10.330;2023-09-12T09:50:16;0.10;;;0.10;;
6695;SDS011;3385;48.928;10.330;2023-09-12T09:52:42;0.03;;;0.03;;
6695;SDS011;3385;48.928;10.330;2023-09-12T09:55:15;0.10;;;0.10;;
6695;SDS011;3385;48.928;10.330;2023-09-12T09:57:41;0.10;;;0.10;;
6695;SDS011;3385;48.928;10.330;2023-09-12T10:00:07;0.10;;;0.10;;
6695;SDS011;3385;48.928;10.330;2023-09-12T10:02:36;0.10;;;0.10;;
6695;SDS011;3385;48.928;10.330;2023-09-12T10:05:04;0.10;;;0.10;;
6695;SDS011;3385;48.928;10.330;2023-09-12T10:07:33;0.10;;;0.10;;
6695;SDS011;3385;48.928;10.330;2023-09-12T10:10:02;0.10;;;0.10;;
6695;SDS011;3385;48.928;10.330;2023-09-12T10:12:33;0.10;;;0.10;;
6695;SDS011;3385;48.928;10.330;2023-09-12T10:15:01;0.10;;;0.10;;
6695;SDS011;3385;48.928;10.330;2023-09-12T10:17:35;0.00;;;0.00;;
6695;SDS011;3385;48.928;10.330;2023-09-12T10:20:03;0.10;;;0.10;;
6695;SDS011;3385;48.928;10.330;2023-09-12T10:22:37;0.10;;;0.10;;
6695;SDS011;3385;48.928;10.330;2023-09-12T10:25:06;0.10;;;0.10;;
6695;SDS011;3385;48.928;10.330;2023-09-12T10:27:33;0.00;;;0.00;;
6695;SDS011;3385;48.928;10.330;2023-09-12T10:29:59;0.00;;;0.00;;
6695;SDS011;3385;48.928;10.330;2023-09-12T10:32:26;0.10;;;0.10;;
6695;SDS011;3385;48.928;10.330;2023-09-12T10:34:54;0.10;;;0.10;;
6695;SDS011;3385;48.928;10.330;2023-09-12T10:37:24;0.10;;;0.10;;
6695;SDS011;3385;48.928;10.330;2023-09-12T10:39:52;0.00;;;0.00;;
6695;SDS011;3385;48.928;10.330;2023-09-12T10:42:19;0.10;;;0.10;;
6695;SDS011;3385;48.928;10.330;2023-09-12T10:44:46;0.10;;;0.10;;
6695;SDS011;3385;48.928;10.330;2023-09-12T10:47:12;0.10;;;0.10;;
6695;SDS011;3385;48.928;10.330;2023-09-12T10:49:39;0.10;;;0.10;;
6695;SDS011;3385;48.928;10.330;2023-09-12T10:52:05;0.10;;;0.10;;
6695;SDS011;3385;48.928;10.330;2023-09-12T10:54:38;0.10;;;0.10;;
6695;SDS011;3385;48.928;10.330;2023-09-12T10:57:14;0.10;;;0.10;;
6695;SDS011;3385;48.928;10.330;2023-09-12T11:02:30;0.10;;;0.10;;
6695;SDS011;3385;48.928;10.330;2023-09-12T11:05:04;0.10;;;0.10;;
6695;SDS011;3385;48.928;10.330;2023-09-12T11:07:31;0.00;;;0.00;;
6695;SDS011;3385;48.928;10.330;2023-09-12T11:12:45;0.00;;;0.00;;
6695;SDS011;3385;48.928;10.330;2023-09-12T11:15:12;0.00;;;0.00;;
6695;SDS011;3385;48.928;10.330;2023-09-12T11:17:46;0.10;;;0.10;;
6695;SDS011;3385;48.928;10.330;2023-09-12T11:20:14;0.10;;;0.10;;
6695;SDS011;3385;48.928;10.330;2023-09-12T11:22:42;0.10;;;0.10;;
6695;SDS011;3385;48.928;10.330;2023-09-12T11:25:18;0.10;;;0.10;;
6695;SDS011;3385;48.928;10.330;2023-09-12T11:30:22;0.10;;;0.10;;
6695;SDS011;3385;48.928;10.330;2023-09-12T11:32:53;0.10;;;0.10;;
6695;SDS011;3385;48.928;10.330;2023-09-12T11:35:26;0.10;;;0.10;;
6695;SDS011;3385;48.928;10.330;2023-09-12T11:37:57;0.10;;;0.10;;
6695;SDS011;3385;48.928;10.330;2023-09-12T11:40:25;0.10;;;0.10;;
6695;SDS011;3385;48.928;10.330;2023-09-12T11:42:57;0.10;;;0.10;;
6695;SDS011;3385;48.928;10.330;2023-09-12T11:45:23;0.17;;;0.17;;
6695;SDS011;3385;48.928;10.330;2023-09-12T11:47:49;0.20;;;0.20;;
6695;SDS011;3385;48.928;10.330;2023-09-12T11:50:31;0.10;;;0.10;;
6695;SDS011;3385;48.928;10.330;2023-09-12T11:53:01;0.10;;;0.10;;
6695;SDS011;3385;48.928;10.330;2023-09-12T11:55:30;0.15;;;0.15;;
6695;SDS011;3385;48.928;10.330;2023-09-12T11:57:56;0.20;;;0.20;;
6695;SDS011;3385;48.928;10.330;2023-09-12T12:00:22;0.20;;;0.20;;
6695;SDS011;3385;48.928;10.330;2023-09-12T12:02:51;0.20;;;0.20;;
6695;SDS011;3385;48.928;10.330;2023-09-12T12:05:18;0.30;;;0.30;;
6695;SDS011;3385;48.928;10.330;2023-09-12T12:07:44;0.30;;;0.30;;
6695;SDS011;3385;48.928;10.330;2023-09-12T12:10:11;0.30;;;0.30;;
6695;SDS011;3385;48.928;10.330;2023-09-12T12:12:38;0.20;;;0.20;;
6695;SDS011;3385;48.928;10.330;2023-09-12T12:15:04;0.30;;;0.30;;
6695;SDS011;3385;48.928;10.330;2023-09-12T12:17:36;0.30;;;0.30;;
6695;SDS011;3385;48.928;10.330;2023-09-12T12:20:06;0.30;;;0.30;;
6695;SDS011;3385;48.928;10.330;2023-09-12T12:22:33;0.30;;;0.30;;
6695;SDS011;3385;48.928;10.330;2023-09-12T12:25:05;0.30;;;0.30;;
6695;SDS011;3385;48.928;10.330;2023-09-12T12:27:35;0.40;;;0.40;;
6695;SDS011;3385;48.928;10.330;2023-09-12T12:30:03;0.32;;;0.32;;
6695;SDS011;3385;48.928;10.330;2023-09-12T12:32:30;0.30;;;0.30;;
6695;SDS011;3385;48.928;10.330;2023-09-12T12:34:55;0.30;;;0.30;;
6695;SDS011;3385;48.928;10.330;2023-09-12T12:37:27;0.23;;;0.23;;
6695;SDS011;3385;48.928;10.330;2023-09-12T12:39:58;0.20;;;0.20;;
6695;SDS011;3385;48.928;10.330;2023-09-12T12:42:24;0.20;;;0.20;;
6695;SDS011;3385;48.928;10.330;2023-09-12T12:44:54;0.20;;;0.20;;
6695;SDS011;3385;48.928;10.330;2023-09-12T12:47:20;0.13;;;0.13;;
6695;SDS011;3385;48.928;10.330;2023-09-12T12:49:50;0.20;;;0.20;;
6695;SDS011;3385;48.928;10.330;2023-09-12T12:52:24;0.20;;;0.20;;
6695;SDS011;3385;48.928;10.330;2023-09-12T12:54:50;0.20;;;0.20;;
6695;SDS011;3385;48.928;10.330;2023-09-12T12:57:19;0.20;;;0.20;;
6695;SDS011;3385;48.928;10.330;2023-09-12T12:59:48;0.20;;;0.20;;
6695;SDS011;3385;48.928;10.330;2023-09-12T13:02:15;0.20;;;0.20;;
6695;SDS011;3385;48.928;10.330;2023-09-12T13:04:42;0.20;;;0.20;;
6695;SDS011;3385;48.928;10.330;2023-09-12T13:07:07;0.25;;;0.25;;
6695;SDS011;3385;48.928;10.330;2023-09-12T13:09:35;0.20;;;0.20;;
6695;SDS011;3385;48.928;10.330;2023-09-12T13:12:02;0.20;;;0.20;;
6695;SDS011;3385;48.928;10.330;2023-09-12T13:14:29;0.30;;;0.30;;
6695;SDS011;3385;48.928;10.330;2023-09-12T13:16:59;0.30;;;0.30;;
6695;SDS011;3385;48.928;10.330;2023-09-12T13:19:28;0.30;;;0.30;;
6695;SDS011;3385;48.928;10.330;2023-09-12T13:21:54;0.40;;;0.40;;
6695;SDS011;3385;48.928;10.330;2023-09-12T13:24:20;0.30;;;0.30;;
6695;SDS011;3385;48.928;10.330;2023-09-12T13:26:46;0.40;;;0.40;;
6695;SDS011;3385;48.928;10.330;2023-09-12T13:29:11;0.43;;;0.43;;
6695;SDS011;3385;48.928;10.330;2023-09-12T13:31:37;0.32;;;0.32;;
6695;SDS011;3385;48.928;10.330;2023-09-12T13:34:03;0.30;;;0.30;;
6695;SDS011;3385;48.928;10.330;2023-09-12T13:36:29;0.30;;;0.30;;
6695;SDS011;3385;48.928;10.330;2023-09-12T13:38:55;0.30;;;0.30;;
6695;SDS011;3385;48.928;10.330;2023-09-12T13:41:21;0.30;;;0.30;;
6695;SDS011;3385;48.928;10.330;2023-09-12T13:43:48;0.30;;;0.30;;
6695;SDS011;3385;48.928;10.330;2023-09-12T13:46:13;0.40;;;0.40;;
6695;SDS011;3385;48.928;10.330;2023-09-12T13:48:41;0.40;;;0.40;;
6695;SDS011;3385;48.928;10.330;2023-09-12T13:51:07;0.43;;;0.43;;
6695;SDS011;3385;48.928;10.330;2023-09-12T13:53:33;0.50;;;0.50;;
6695;SDS011;3385;48.928;10.330;2023-09-12T13:55:59;0.40;;;0.40;;
6695;SDS011;3385;48.928;10.330;2023-09-12T13:58:26;0.40;;;0.40;;
6695;SDS011;3385;48.928;10.330;2023-09-12T14:00:52;0.40;;;0.40;;
6695;SDS011;3385;48.928;10.330;2023-09-12T14:03:18;0.50;;;0.50;;
6695;SDS011;3385;48.928;10.330;2023-09-12T14:05:44;0.40;;;0.40;;
6695;SDS011;3385;48.928;10.330;2023-09-12T14:08:10;0.40;;;0.40;;
6695;SDS011;3385;48.928;10.330;2023-09-12T14:10:36;0.30;;;0.30;;
6695;SDS011;3385;48.928;10.330;2023-09-12T14:13:02;0.30;;;0.30;;
6695;SDS011;3385;48.928;10.330;2023-09-12T14:15:28;0.40;;;0.40;;
6695;SDS011;3385;48.928;10.330;2023-09-12T14:17:54;0.50;;;0.50;;
6695;SDS011;3385;48.928;10.330;2023-09-12T14:20:20;0.40;;;0.40;;
6695;SDS011;3385;48.928;10.330;2023-09-12T14:22:46;0.30;;;0.30;;
6695;SDS011;3385;48.928;10.330;2023-09-12T14:25:12;0.30;;;0.30;;
6695;SDS011;3385;48.928;10.330;2023-09-12T14:27:40;0.30;;;0.30;;
6695;SDS011;3385;48.928;10.330;2023-09-12T14:30:07;0.20;;;0.20;;
6695;SDS011;3385;48.928;10.330;2023-09-12T14:32:33;0.20;;;0.20;;
6695;SDS011;3385;48.928;10.330;2023-09-12T14:34:59;0.20;;;0.20;;
6695;SDS011;3385;48.928;10.330;2023-09-12T14:37:25;0.20;;;0.20;;
6695;SDS011;3385;48.928;10.330;2023-09-12T14:39:53;0.10;;;0.10;;
6695;SDS011;3385;48.928;10.330;2023-09-12T14:42:21;0.20;;;0.20;;
6695;SDS011;3385;48.928;10.330;2023-09-12T14:44:49;0.10;;;0.10;;
6695;SDS011;3385;48.928;10.330;2023-09-12T14:47:15;0.10;;;0.10;;
6695;SDS011;3385;48.928;10.330;2023-09-12T14:49:41;0.10;;;0.10;;
6695;SDS011;3385;48.928;10.330;2023-09-12T14:52:07;0.10;;;0.10;;
6695;SDS011;3385;48.928;10.330;2023-09-12T14:54:33;0.10;;;0.10;;
6695;SDS011;3385;48.928;10.330;2023-09-12T14:57:00;0.10;;;0.10;;
6695;SDS011;3385;48.928;10.330;2023-09-12T14:59:26;0.10;;;0.10;;
6695;SDS011;3385;48.928;10.330;2023-09-12T15:01:52;0.10;;;0.10;;
6695;SDS011;3385;48.928;10.330;2023-09-12T15:04:18;0.10;;;0.10;;
6695;SDS011;3385;48.928;10.330;2023-09-12T15:06:44;0.10;;;0.10;;
6695;SDS011;3385;48.928;10.330;2023-09-12T15:09:09;0.10;;;0.10;;
6695;SDS011;3385;48.928;10.330;2023-09-12T15:11:36;0.10;;;0.10;;